sensor_id;sensor_type;location;lat;lon;timestamp;temperature;humidity
573;DHT22;271;51.114;13.780;2024-03-23T00:54:20;8.80;1.00
573;DHT22;271;51.114;13.780;2024-03-23T00:57:08;8.70;1.00
573;DHT22;271;51.114;13.780;2024-03-23T00:59:55;8.60;1.00
573;DHT22;271;51.114;13.780;2024-03-23T01:02:42;8.60;1.00
573;DHT22;271;51.114;13.780;2024-03-23T01:05:29;8.40;1.00
573;DHT22;271;51.114;13.780;2024-03-23T01:08:17;8.40;4.10
573;DHT22;271;51.114;13.780;2024-03-23T01:11:05;8.40;6.10
573;DHT22;271;51.114;13.780;2024-03-23T01:13:53;8.50;7.20
573;DHT22;271;51.114;13.780;2024-03-23T01:16:42;8.50;6.90
573;DHT22;271;51.114;13.780;2024-03-23T01:19:30;8.40;6.80
573;DHT22;271;51.114;13.780;2024-03-23T01:22:16;8.40;7.40
573;DHT22;271;51.114;13.780;2024-03-23T01:25:04;8.40;7.00
573;DHT22;271;51.114;13.780;2024-03-23T01:27:52;8.30;7.20
573;DHT22;271;51.114;13.780;2024-03-23T01:30:40;8.30;5.10
573;DHT22;271;51.114;13.780;2024-03-23T01:33:27;8.20;5.20
573;DHT22;271;51.114;13.780;2024-03-23T01:36:14;8.10;4.70
573;DHT22;271;51.114;13.780;2024-03-23T01:39:01;8.00;6.20
573;DHT22;271;51.114;13.780;2024-03-23T01:41:49;8.00;7.10
573;DHT22;271;51.114;13.780;2024-03-23T01:44:37;7.90;7.10
573;DHT22;271;51.114;13.780;2024-03-23T01:47:25;8.10;7.90
573;DHT22;271;51.114;13.780;2024-03-23T01:50:12;7.80;9.70
573;DHT22;271;51.114;13.780;2024-03-23T01:53:01;7.70;12.70
573;DHT22;271;51.114;13.780;2024-03-23T01:55:51;7.80;14.40
573;DHT22;271;51.114;13.780;2024-03-23T01:58:38;7.80;15.50
573;DHT22;271;51.114;13.780;2024-03-23T02:01:27;7.90;21.00
573;DHT22;271;51.114;13.780;2024-03-23T02:04:14;8.00;21.40
573;DHT22;271;51.114;13.780;2024-03-23T02:07:01;8.00;21.10
573;DHT22;271;51.114;13.780;2024-03-23T02:09:49;8.00;21.30
573;DHT22;271;51.114;13.780;2024-03-23T02:12:37;8.10;22.30
573;DHT22;271;51.114;13.780;2024-03-23T02:15:24;8.10;21.20
573;DHT22;271;51.114;13.780;2024-03-23T02:18:13;8.20;21.20
573;DHT22;271;51.114;13.780;2024-03-23T02:21:00;8.20;21.00
573;DHT22;271;51.114;13.780;2024-03-23T02:23:49;8.30;24.30
573;DHT22;271;51.114;13.780;2024-03-23T02:26:36;8.30;25.60
573;DHT22;271;51.114;13.780;2024-03-23T02:29:23;8.50;26.10
573;DHT22;271;51.114;13.780;2024-03-23T02:32:10;8.60;23.00
573;DHT22;271;51.114;13.780;2024-03-23T02:34:58;8.60;23.00
573;DHT22;271;51.114;13.780;2024-03-23T02:37:46;8.60;22.20
573;DHT22;271;51.114;13.780;2024-03-23T02:40:36;8.60;24.70
573;DHT22;271;51.114;13.780;2024-03-23T02:43:24;8.60;24.10
573;DHT22;271;51.114;13.780;2024-03-23T02:46:10;8.70;25.20
573;DHT22;271;51.114;13.780;2024-03-23T02:48:58;8.70;21.80
573;DHT22;271;51.114;13.780;2024-03-23T02:51:45;8.70;20.90
573;DHT22;271;51.114;13.780;2024-03-23T02:54:34;8.80;17.30
573;DHT22;271;51.114;13.780;2024-03-23T02:57:22;8.70;15.90
573;DHT22;271;51.114;13.780;2024-03-23T03:00:11;8.70;14.90
573;DHT22;271;51.114;13.780;2024-03-23T03:02:59;8.70;17.00
573;DHT22;271;51.114;13.780;2024-03-23T03:05:46;8.60;17.80
573;DHT22;271;51.114;13.780;2024-03-23T03:08:33;8.70;18.50
573;DHT22;271;51.114;13.780;2024-03-23T03:11:21;8.70;17.90
573;DHT22;271;51.114;13.780;2024-03-23T03:14:10;8.70;20.00
573;DHT22;271;51.114;13.780;2024-03-23T03:16:56;8.70;20.90
573;DHT22;271;51.114;13.780;2024-03-23T03:19:44;8.70;21.30
573;DHT22;271;51.114;13.780;2024-03-23T03:22:31;8.60;21.40
573;DHT22;271;51.114;13.780;2024-03-23T03:25:20;8.50;21.50
573;DHT22;271;51.114;13.780;2024-03-23T03:28:06;8.60;21.90
573;DHT22;271;51.114;13.780;2024-03-23T03:30:55;8.60;22.20
573;DHT22;271;51.114;13.780;2024-03-23T03:33:42;8.60;21.40
573;DHT22;271;51.114;13.780;2024-03-23T03:36:29;8.50;21.60
573;DHT22;271;51.114;13.780;2024-03-23T03:39:16;8.50;22.10
573;DHT22;271;51.114;13.780;2024-03-23T03:42:04;8.40;22.90
573;DHT22;271;51.114;13.780;2024-03-23T03:44:53;8.50;24.40
573;DHT22;271;51.114;13.780;2024-03-23T03:47:42;8.60;23.90
573;DHT22;271;51.114;13.780;2024-03-23T03:50:29;8.60;25.20
573;DHT22;271;51.114;13.780;2024-03-23T03:53:17;8.60;20.80
573;DHT22;271;51.114;13.780;2024-03-23T03:56:04;8.60;21.40
573;DHT22;271;51.114;13.780;2024-03-23T03:58:52;8.50;22.10
573;DHT22;271;51.114;13.780;2024-03-23T04:01:38;8.50;22.60
573;DHT22;271;51.114;13.780;2024-03-23T04:04:27;8.60;23.50
573;DHT22;271;51.114;13.780;2024-03-23T04:07:14;8.60;23.70
573;DHT22;271;51.114;13.780;2024-03-23T04:10:04;8.70;22.00
573;DHT22;271;51.114;13.780;2024-03-23T04:12:53;8.70;21.50
573;DHT22;271;51.114;13.780;2024-03-23T04:15:41;8.70;22.30
573;DHT22;271;51.114;13.780;2024-03-23T04:18:28;8.70;23.50
573;DHT22;271;51.114;13.780;2024-03-23T04:21:17;8.60;23.90
573;DHT22;271;51.114;13.780;2024-03-23T04:24:05;8.70;22.70
573;DHT22;271;51.114;13.780;2024-03-23T04:26:52;8.70;22.00
573;DHT22;271;51.114;13.780;2024-03-23T04:29:40;8.70;19.20
573;DHT22;271;51.114;13.780;2024-03-23T04:32:27;8.70;17.80
573;DHT22;271;51.114;13.780;2024-03-23T04:35:15;8.60;18.20
573;DHT22;271;51.114;13.780;2024-03-23T04:38:03;8.50;18.60
573;DHT22;271;51.114;13.780;2024-03-23T04:40:54;8.40;20.20
573;DHT22;271;51.114;13.780;2024-03-23T04:43:42;8.30;22.40
573;DHT22;271;51.114;13.780;2024-03-23T04:46:30;8.30;24.10
573;DHT22;271;51.114;13.780;2024-03-23T04:49:17;8.20;25.50
573;DHT22;271;51.114;13.780;2024-03-23T04:52:06;8.20;26.90
573;DHT22;271;51.114;13.780;2024-03-23T04:54:55;8.30;30.60
573;DHT22;271;51.114;13.780;2024-03-23T04:57:42;8.40;30.20
573;DHT22;271;51.114;13.780;2024-03-23T05:00:30;8.40;29.50
573;DHT22;271;51.114;13.780;2024-03-23T05:03:17;8.50;23.30
573;DHT22;271;51.114;13.780;2024-03-23T05:06:06;8.40;21.40
573;DHT22;271;51.114;13.780;2024-03-23T05:08:52;8.40;21.40
573;DHT22;271;51.114;13.780;2024-03-23T05:11:41;8.40;21.40
573;DHT22;271;51.114;13.780;2024-03-23T05:14:28;8.30;21.70
573;DHT22;271;51.114;13.780;2024-03-23T05:17:16;8.30;24.70
573;DHT22;271;51.114;13.780;2024-03-23T05:20:03;8.20;26.80
573;DHT22;271;51.114;13.780;2024-03-23T05:22:51;8.30;28.90
573;DHT22;271;51.114;13.780;2024-03-23T05:25:38;8.20;26.50
573;DHT22;271;51.114;13.780;2024-03-23T05:28:27;8.40;29.90
573;DHT22;271;51.114;13.780;2024-03-23T05:31:22;8.40;30.00
573;DHT22;271;51.114;13.780;2024-03-23T05:34:10;8.60;29.90
573;DHT22;271;51.114;13.780;2024-03-23T05:36:57;8.60;25.60
573;DHT22;271;51.114;13.780;2024-03-23T05:39:44;8.70;21.50
573;DHT22;271;51.114;13.780;2024-03-23T05:42:31;8.60;24.10
573;DHT22;271;51.114;13.780;2024-03-23T05:45:20;8.70;25.40
573;DHT22;271;51.114;13.780;2024-03-23T05:48:07;8.70;21.90
573;DHT22;271;51.114;13.780;2024-03-23T05:50:55;8.80;22.70
573;DHT22;271;51.114;13.780;2024-03-23T05:53:41;8.80;23.00
573;DHT22;271;51.114;13.780;2024-03-23T05:56:29;8.80;23.30
573;DHT22;271;51.114;13.780;2024-03-23T05:59:16;8.80;25.70
573;DHT22;271;51.114;13.780;2024-03-23T06:02:05;8.90;24.20
573;DHT22;271;51.114;13.780;2024-03-23T06:04:52;8.90;21.50
573;DHT22;271;51.114;13.780;2024-03-23T06:07:39;8.80;21.30
573;DHT22;271;51.114;13.780;2024-03-23T06:10:26;8.80;21.50
573;DHT22;271;51.114;13.780;2024-03-23T06:13:14;8.80;23.40
573;DHT22;271;51.114;13.780;2024-03-23T06:16:00;8.70;21.10
573;DHT22;271;51.114;13.780;2024-03-23T06:18:50;8.70;21.30
573;DHT22;271;51.114;13.780;2024-03-23T06:21:36;8.60;21.50
573;DHT22;271;51.114;13.780;2024-03-23T06:24:27;8.50;24.00
573;DHT22;271;51.114;13.780;2024-03-23T06:27:13;8.50;26.30
573;DHT22;271;51.114;13.780;2024-03-23T06:30:05;8.50;29.00
573;DHT22;271;51.114;13.780;2024-03-23T06:32:53;8.60;29.80
573;DHT22;271;51.114;13.780;2024-03-23T06:35:50;8.60;27.30
573;DHT22;271;51.114;13.780;2024-03-23T06:38:38;8.60;30.00
573;DHT22;271;51.114;13.780;2024-03-23T06:41:26;8.70;25.70
573;DHT22;271;51.114;13.780;2024-03-23T06:44:13;8.60;24.60
573;DHT22;271;51.114;13.780;2024-03-23T06:47:01;8.60;27.60
573;DHT22;271;51.114;13.780;2024-03-23T06:49:49;8.70;28.90
573;DHT22;271;51.114;13.780;2024-03-23T06:52:38;8.70;28.00
573;DHT22;271;51.114;13.780;2024-03-23T06:55:24;8.80;28.60
573;DHT22;271;51.114;13.780;2024-03-23T06:58:13;8.80;28.30
573;DHT22;271;51.114;13.780;2024-03-23T07:00:59;8.80;26.10
573;DHT22;271;51.114;13.780;2024-03-23T07:03:47;8.90;26.00
573;DHT22;271;51.114;13.780;2024-03-23T07:06:34;8.80;25.80
573;DHT22;271;51.114;13.780;2024-03-23T07:09:30;8.70;28.90
573;DHT22;271;51.114;13.780;2024-03-23T07:12:17;8.70;32.50
573;DHT22;271;51.114;13.780;2024-03-23T07:15:06;8.60;35.60
573;DHT22;271;51.114;13.780;2024-03-23T07:17:53;8.60;36.50
573;DHT22;271;51.114;13.780;2024-03-23T07:20:41;8.60;43.90
573;DHT22;271;51.114;13.780;2024-03-23T07:23:28;8.70;47.50
573;DHT22;271;51.114;13.780;2024-03-23T07:26:20;8.80;46.00
573;DHT22;271;51.114;13.780;2024-03-23T07:29:07;8.80;47.30
573;DHT22;271;51.114;13.780;2024-03-23T07:31:58;8.80;49.00
573;DHT22;271;51.114;13.780;2024-03-23T07:34:45;8.90;51.70
573;DHT22;271;51.114;13.780;2024-03-23T07:37:35;8.90;50.80
573;DHT22;271;51.114;13.780;2024-03-23T07:40:23;9.00;52.20
573;DHT22;271;51.114;13.780;2024-03-23T07:43:15;9.10;51.80
573;DHT22;271;51.114;13.780;2024-03-23T07:46:02;9.20;50.60
573;DHT22;271;51.114;13.780;2024-03-23T07:48:51;9.20;50.00
573;DHT22;271;51.114;13.780;2024-03-23T07:51:37;9.20;47.30
573;DHT22;271;51.114;13.780;2024-03-23T07:54:29;9.10;48.30
573;DHT22;271;51.114;13.780;2024-03-23T07:57:15;9.20;49.40
573;DHT22;271;51.114;13.780;2024-03-23T08:00:09;9.20;49.30
573;DHT22;271;51.114;13.780;2024-03-23T08:02:56;9.10;50.10
573;DHT22;271;51.114;13.780;2024-03-23T08:05:47;9.20;54.10
573;DHT22;271;51.114;13.780;2024-03-23T08:08:33;9.30;52.10
573;DHT22;271;51.114;13.780;2024-03-23T08:11:24;9.30;47.60
573;DHT22;271;51.114;13.780;2024-03-23T08:14:10;9.30;47.20
573;DHT22;271;51.114;13.780;2024-03-23T08:17:02;9.40;47.00
573;DHT22;271;51.114;13.780;2024-03-23T08:19:49;9.40;43.20
573;DHT22;271;51.114;13.780;2024-03-23T08:22:39;9.30;43.70
573;DHT22;271;51.114;13.780;2024-03-23T08:25:26;9.40;45.20
573;DHT22;271;51.114;13.780;2024-03-23T08:28:16;9.40;45.40
573;DHT22;271;51.114;13.780;2024-03-23T08:31:05;9.40;44.40
573;DHT22;271;51.114;13.780;2024-03-23T08:33:57;9.40;46.80
573;DHT22;271;51.114;13.780;2024-03-23T08:36:43;9.50;53.50
573;DHT22;271;51.114;13.780;2024-03-23T08:39:32;9.50;52.40
573;DHT22;271;51.114;13.780;2024-03-23T08:42:19;9.60;50.90
573;DHT22;271;51.114;13.780;2024-03-23T08:45:10;9.80;47.80
573;DHT22;271;51.114;13.780;2024-03-23T08:47:57;9.80;45.60
573;DHT22;271;51.114;13.780;2024-03-23T08:51:02;9.90;48.40
573;DHT22;271;51.114;13.780;2024-03-23T08:53:49;9.90;50.80
573;DHT22;271;51.114;13.780;2024-03-23T08:56:37;9.90;47.80
573;DHT22;271;51.114;13.780;2024-03-23T08:59:25;10.00;49.00
573;DHT22;271;51.114;13.780;2024-03-23T09:02:12;10.00;51.10
573;DHT22;271;51.114;13.780;2024-03-23T09:04:59;10.00;45.70
573;DHT22;271;51.114;13.780;2024-03-23T09:07:52;10.10;44.70
573;DHT22;271;51.114;13.780;2024-03-23T09:10:39;10.30;43.40
573;DHT22;271;51.114;13.780;2024-03-23T09:13:26;10.40;39.30
573;DHT22;271;51.114;13.780;2024-03-23T09:16:14;10.70;45.90
573;DHT22;271;51.114;13.780;2024-03-23T09:19:04;10.80;31.90
573;DHT22;271;51.114;13.780;2024-03-23T09:21:52;11.00;26.50
573;DHT22;271;51.114;13.780;2024-03-23T09:24:43;11.00;12.00
573;DHT22;271;51.114;13.780;2024-03-23T09:27:31;11.00;4.80
573;DHT22;271;51.114;13.780;2024-03-23T09:30:42;10.90;7.50
573;DHT22;271;51.114;13.780;2024-03-23T09:33:36;10.90;8.50
573;DHT22;271;51.114;13.780;2024-03-23T09:36:23;10.90;7.30
573;DHT22;271;51.114;13.780;2024-03-23T09:39:17;11.00;9.60
573;DHT22;271;51.114;13.780;2024-03-23T09:42:08;10.90;3.10
573;DHT22;271;51.114;13.780;2024-03-23T09:44:57;10.90;2.40
573;DHT22;271;51.114;13.780;2024-03-23T09:47:45;10.90;2.20
573;DHT22;271;51.114;13.780;2024-03-23T09:50:33;11.00;1.50
573;DHT22;271;51.114;13.780;2024-03-23T09:53:20;11.00;1.00
573;DHT22;271;51.114;13.780;2024-03-23T09:56:12;10.90;1.00
573;DHT22;271;51.114;13.780;2024-03-23T09:59:03;10.60;1.00
573;DHT22;271;51.114;13.780;2024-03-23T10:01:51;10.20;1.00
573;DHT22;271;51.114;13.780;2024-03-23T10:04:38;9.70;1.00
573;DHT22;271;51.114;13.780;2024-03-23T10:07:26;9.30;1.00
573;DHT22;271;51.114;13.780;2024-03-23T10:10:16;9.10;1.00
573;DHT22;271;51.114;13.780;2024-03-23T10:13:04;9.00;1.00
573;DHT22;271;51.114;13.780;2024-03-23T10:15:59;8.60;1.00
573;DHT22;271;51.114;13.780;2024-03-23T10:18:47;8.10;1.00
573;DHT22;271;51.114;13.780;2024-03-23T10:21:33;7.90;1.00
573;DHT22;271;51.114;13.780;2024-03-23T10:24:21;7.50;1.00
573;DHT22;271;51.114;13.780;2024-03-23T10:27:08;7.20;1.00
573;DHT22;271;51.114;13.780;2024-03-23T10:30:07;7.00;2.00
573;DHT22;271;51.114;13.780;2024-03-23T10:33:08;6.70;3.20
573;DHT22;271;51.114;13.780;2024-03-23T10:36:08;6.40;1.00
573;DHT22;271;51.114;13.780;2024-03-23T10:38:56;6.30;1.00
573;DHT22;271;51.114;13.780;2024-03-23T10:41:46;6.30;1.00
573;DHT22;271;51.114;13.780;2024-03-23T10:44:36;6.30;1.00
573;DHT22;271;51.114;13.780;2024-03-23T10:47:26;6.30;2.70
573;DHT22;271;51.114;13.780;2024-03-23T10:50:14;6.40;6.10
573;DHT22;271;51.114;13.780;2024-03-23T10:53:02;6.20;6.60
573;DHT22;271;51.114;13.780;2024-03-23T10:55:53;6.10;18.10
573;DHT22;271;51.114;13.780;2024-03-23T10:58:59;6.00;23.90
573;DHT22;271;51.114;13.780;2024-03-23T11:05:47;5.90;28.70
573;DHT22;271;51.114;13.780;2024-03-23T11:08:36;5.80;30.10
573;DHT22;271;51.114;13.780;2024-03-23T11:11:24;5.60;28.60
573;DHT22;271;51.114;13.780;2024-03-23T11:14:22;5.60;37.00
573;DHT22;271;51.114;13.780;2024-03-23T11:17:18;5.60;36.10
573;DHT22;271;51.114;13.780;2024-03-23T11:20:07;5.60;39.10
573;DHT22;271;51.114;13.780;2024-03-23T11:22:57;5.70;45.20
573;DHT22;271;51.114;13.780;2024-03-23T11:25:47;5.70;41.80
573;DHT22;271;51.114;13.780;2024-03-23T11:28:37;5.80;45.80
573;DHT22;271;51.114;13.780;2024-03-23T11:31:25;5.80;48.10
573;DHT22;271;51.114;13.780;2024-03-23T11:34:12;5.70;39.80
573;DHT22;271;51.114;13.780;2024-03-23T11:37:18;5.70;45.50
573;DHT22;271;51.114;13.780;2024-03-23T11:40:21;5.70;46.40
573;DHT22;271;51.114;13.780;2024-03-23T11:43:17;5.70;47.40
573;DHT22;271;51.114;13.780;2024-03-23T11:46:37;5.50;47.20
573;DHT22;271;51.114;13.780;2024-03-23T11:49:42;5.50;50.10
573;DHT22;271;51.114;13.780;2024-03-23T12:03:25;5.80;60.00
573;DHT22;271;51.114;13.780;2024-03-23T12:06:19;5.90;57.00
573;DHT22;271;51.114;13.780;2024-03-23T12:09:06;6.00;57.40
573;DHT22;271;51.114;13.780;2024-03-23T12:11:54;5.90;54.30
573;DHT22;271;51.114;13.780;2024-03-23T12:14:45;5.70;46.00
573;DHT22;271;51.114;13.780;2024-03-23T12:17:34;5.70;50.30
573;DHT22;271;51.114;13.780;2024-03-23T12:20:22;5.70;51.20
573;DHT22;271;51.114;13.780;2024-03-23T12:23:12;5.70;50.80
573;DHT22;271;51.114;13.780;2024-03-23T12:26:00;5.80;50.00
573;DHT22;271;51.114;13.780;2024-03-23T12:28:47;5.80;48.70
573;DHT22;271;51.114;13.780;2024-03-23T12:31:35;5.70;40.90
573;DHT22;271;51.114;13.780;2024-03-23T12:34:22;5.70;43.40
573;DHT22;271;51.114;13.780;2024-03-23T12:37:14;5.90;44.00
573;DHT22;271;51.114;13.780;2024-03-23T12:40:04;5.70;42.60
573;DHT22;271;51.114;13.780;2024-03-23T12:42:51;5.70;44.00
573;DHT22;271;51.114;13.780;2024-03-23T12:45:39;5.70;41.40
573;DHT22;271;51.114;13.780;2024-03-23T12:48:28;5.80;47.30
573;DHT22;271;51.114;13.780;2024-03-23T12:51:16;6.00;48.10
573;DHT22;271;51.114;13.780;2024-03-23T12:54:08;6.20;48.00
573;DHT22;271;51.114;13.780;2024-03-23T12:56:55;6.30;46.00
573;DHT22;271;51.114;13.780;2024-03-23T12:59:45;6.10;31.10
573;DHT22;271;51.114;13.780;2024-03-23T13:02:37;6.00;23.80
573;DHT22;271;51.114;13.780;2024-03-23T13:05:24;5.90;20.10
573;DHT22;271;51.114;13.780;2024-03-23T13:08:15;5.90;24.70
573;DHT22;271;51.114;13.780;2024-03-23T13:11:03;5.90;20.70
573;DHT22;271;51.114;13.780;2024-03-23T13:13:51;5.90;19.80
573;DHT22;271;51.114;13.780;2024-03-23T13:16:40;5.90;20.20
573;DHT22;271;51.114;13.780;2024-03-23T13:19:28;6.00;20.50
573;DHT22;271;51.114;13.780;2024-03-23T13:22:17;6.20;27.60
573;DHT22;271;51.114;13.780;2024-03-23T13:25:06;6.30;24.20
573;DHT22;271;51.114;13.780;2024-03-23T13:27:57;6.30;12.90
573;DHT22;271;51.114;13.780;2024-03-23T13:30:50;6.10;9.10
573;DHT22;271;51.114;13.780;2024-03-23T13:33:37;6.40;10.00
573;DHT22;271;51.114;13.780;2024-03-23T13:48:27;6.30;1.00
573;DHT22;271;51.114;13.780;2024-03-23T13:51:39;6.10;1.00
573;DHT22;271;51.114;13.780;2024-03-23T13:55:03;6.60;1.00
573;DHT22;271;51.114;13.780;2024-03-23T13:58:07;7.00;1.00
573;DHT22;271;51.114;13.780;2024-03-23T14:15:27;6.80;1.00
573;DHT22;271;51.114;13.780;2024-03-23T14:18:19;6.90;1.00
573;DHT22;271;51.114;13.780;2024-03-23T14:21:08;7.10;1.00
573;DHT22;271;51.114;13.780;2024-03-23T14:23:57;7.20;1.00
573;DHT22;271;51.114;13.780;2024-03-23T14:26:43;7.20;1.00
573;DHT22;271;51.114;13.780;2024-03-23T14:29:37;7.30;1.00
573;DHT22;271;51.114;13.780;2024-03-23T14:36:11;7.60;1.00
573;DHT22;271;51.114;13.780;2024-03-23T14:39:30;7.60;1.00
573;DHT22;271;51.114;13.780;2024-03-23T14:42:25;7.60;1.00
573;DHT22;271;51.114;13.780;2024-03-23T14:45:25;7.70;1.00
573;DHT22;271;51.114;13.780;2024-03-23T14:48:31;7.90;1.00
573;DHT22;271;51.114;13.780;2024-03-23T14:51:46;8.30;1.00
573;DHT22;271;51.114;13.780;2024-03-23T14:54:40;8.30;1.00
573;DHT22;271;51.114;13.780;2024-03-23T14:57:27;8.20;1.00
573;DHT22;271;51.114;13.780;2024-03-23T15:00:45;8.20;1.00
573;DHT22;271;51.114;13.780;2024-03-23T15:04:06;8.10;1.00
573;DHT22;271;51.114;13.780;2024-03-23T15:25:24;7.80;1.00
573;DHT22;271;51.114;13.780;2024-03-23T15:28:27;7.80;1.00
573;DHT22;271;51.114;13.780;2024-03-23T15:31:27;8.10;1.00
573;DHT22;271;51.114;13.780;2024-03-23T15:34:26;8.20;1.00
573;DHT22;271;51.114;13.780;2024-03-23T15:37:16;8.30;1.00
573;DHT22;271;51.114;13.780;2024-03-23T15:40:19;8.20;1.00
573;DHT22;271;51.114;13.780;2024-03-23T15:43:07;8.10;1.00
573;DHT22;271;51.114;13.780;2024-03-23T15:45:57;8.10;1.00
573;DHT22;271;51.114;13.780;2024-03-23T15:48:46;8.10;1.00
573;DHT22;271;51.114;13.780;2024-03-23T15:51:35;8.00;1.00
573;DHT22;271;51.114;13.780;2024-03-23T15:54:25;8.00;1.00
573;DHT22;271;51.114;13.780;2024-03-23T15:57:13;8.00;1.00
573;DHT22;271;51.114;13.780;2024-03-23T16:00:08;7.90;1.00
573;DHT22;271;51.114;13.780;2024-03-23T16:02:57;7.90;1.00
573;DHT22;271;51.114;13.780;2024-03-23T16:05:50;8.00;1.00
573;DHT22;271;51.114;13.780;2024-03-23T16:08:38;7.90;1.00
573;DHT22;271;51.114;13.780;2024-03-23T16:11:25;7.30;1.00
573;DHT22;271;51.114;13.780;2024-03-23T16:14:14;6.70;1.00
573;DHT22;271;51.114;13.780;2024-03-23T16:17:02;6.40;1.00
573;DHT22;271;51.114;13.780;2024-03-23T16:19:49;6.00;1.00
573;DHT22;271;51.114;13.780;2024-03-23T16:22:36;5.90;1.00
573;DHT22;271;51.114;13.780;2024-03-23T16:25:24;5.80;1.00
573;DHT22;271;51.114;13.780;2024-03-23T16:28:30;5.70;1.00
573;DHT22;271;51.114;13.780;2024-03-23T17:01:45;5.40;2.90
573;DHT22;271;51.114;13.780;2024-03-23T17:12:24;5.50;4.80
573;DHT22;271;51.114;13.780;2024-03-23T17:15:17;5.60;6.30
573;DHT22;271;51.114;13.780;2024-03-23T17:18:55;5.60;5.80
573;DHT22;271;51.114;13.780;2024-03-23T17:22:40;5.60;2.40
573;DHT22;271;51.114;13.780;2024-03-23T17:25:45;5.70;1.00
573;DHT22;271;51.114;13.780;2024-03-23T17:28:45;5.40;1.00
573;DHT22;271;51.114;13.780;2024-03-23T17:31:43;5.80;1.00
573;DHT22;271;51.114;13.780;2024-03-23T17:34:47;5.70;1.00
573;DHT22;271;51.114;13.780;2024-03-23T17:37:35;5.70;1.00
573;DHT22;271;51.114;13.780;2024-03-23T17:40:34;5.90;1.00
573;DHT22;271;51.114;13.780;2024-03-23T17:43:56;5.70;1.00
573;DHT22;271;51.114;13.780;2024-03-23T17:47:08;5.60;1.00
573;DHT22;271;51.114;13.780;2024-03-23T17:50:20;5.60;1.00
573;DHT22;271;51.114;13.780;2024-03-23T17:53:12;5.50;1.00
573;DHT22;271;51.114;13.780;2024-03-23T17:56:35;5.50;1.00
573;DHT22;271;51.114;13.780;2024-03-23T18:00:12;5.40;1.90
573;DHT22;271;51.114;13.780;2024-03-23T18:07:32;5.10;2.70
573;DHT22;271;51.114;13.780;2024-03-23T18:10:27;5.10;3.70
573;DHT22;271;51.114;13.780;2024-03-23T18:13:55;5.00;4.00
573;DHT22;271;51.114;13.780;2024-03-23T18:17:33;5.00;3.10
573;DHT22;271;51.114;13.780;2024-03-23T18:20:29;5.10;2.70
573;DHT22;271;51.114;13.780;2024-03-23T18:23:30;5.00;1.00
573;DHT22;271;51.114;13.780;2024-03-23T18:26:34;5.00;1.00
573;DHT22;271;51.114;13.780;2024-03-23T18:29:48;5.00;1.00
573;DHT22;271;51.114;13.780;2024-03-23T18:32:48;4.90;1.00
573;DHT22;271;51.114;13.780;2024-03-23T18:35:49;4.90;1.00
573;DHT22;271;51.114;13.780;2024-03-23T18:38:38;4.90;1.00
573;DHT22;271;51.114;13.780;2024-03-23T18:41:27;4.90;1.00
573;DHT22;271;51.114;13.780;2024-03-23T18:44:33;4.90;1.00
573;DHT22;271;51.114;13.780;2024-03-23T18:47:28;4.90;1.00
573;DHT22;271;51.114;13.780;2024-03-23T18:50:15;4.90;1.00
573;DHT22;271;51.114;13.780;2024-03-23T18:53:05;4.90;1.00
573;DHT22;271;51.114;13.780;2024-03-23T18:56:06;4.90;1.00
573;DHT22;271;51.114;13.780;2024-03-23T18:59:19;4.90;1.00
573;DHT22;271;51.114;13.780;2024-03-23T19:02:07;4.90;1.00
573;DHT22;271;51.114;13.780;2024-03-23T19:04:58;4.90;1.00
573;DHT22;271;51.114;13.780;2024-03-23T19:07:52;5.10;1.00
573;DHT22;271;51.114;13.780;2024-03-23T19:10:39;4.90;1.00
573;DHT22;271;51.114;13.780;2024-03-23T19:13:30;4.90;1.00
573;DHT22;271;51.114;13.780;2024-03-23T19:16:18;5.00;2.00
573;DHT22;271;51.114;13.780;2024-03-23T19:19:10;5.10;3.80
573;DHT22;271;51.114;13.780;2024-03-23T19:21:59;5.10;6.60
573;DHT22;271;51.114;13.780;2024-03-23T19:24:46;5.10;7.50
573;DHT22;271;51.114;13.780;2024-03-23T19:27:34;5.10;9.00
573;DHT22;271;51.114;13.780;2024-03-23T19:30:27;5.00;9.80
573;DHT22;271;51.114;13.780;2024-03-23T19:33:16;5.00;11.30
573;DHT22;271;51.114;13.780;2024-03-23T19:36:04;5.10;10.00
573;DHT22;271;51.114;13.780;2024-03-23T19:38:52;4.80;7.90
573;DHT22;271;51.114;13.780;2024-03-23T19:41:39;4.80;10.10
573;DHT22;271;51.114;13.780;2024-03-23T19:44:28;4.70;10.70
573;DHT22;271;51.114;13.780;2024-03-23T19:47:16;4.70;11.90
573;DHT22;271;51.114;13.780;2024-03-23T19:50:04;4.80;11.70
573;DHT22;271;51.114;13.780;2024-03-23T19:52:51;4.60;9.80
573;DHT22;271;51.114;13.780;2024-03-23T19:55:39;4.60;9.50
573;DHT22;271;51.114;13.780;2024-03-23T19:58:25;4.40;7.00
573;DHT22;271;51.114;13.780;2024-03-23T20:01:14;4.40;9.30
573;DHT22;271;51.114;13.780;2024-03-23T20:04:03;4.40;9.10
573;DHT22;271;51.114;13.780;2024-03-23T20:06:50;4.30;7.60
573;DHT22;271;51.114;13.780;2024-03-23T20:09:37;4.30;6.00
573;DHT22;271;51.114;13.780;2024-03-23T20:12:25;4.10;5.60
573;DHT22;271;51.114;13.780;2024-03-23T20:15:12;4.00;7.50
573;DHT22;271;51.114;13.780;2024-03-23T20:18:02;3.90;7.60
573;DHT22;271;51.114;13.780;2024-03-23T20:20:56;3.80;8.60
573;DHT22;271;51.114;13.780;2024-03-23T20:24:06;3.80;10.00
573;DHT22;271;51.114;13.780;2024-03-23T20:27:12;3.80;10.20
573;DHT22;271;51.114;13.780;2024-03-23T20:30:36;3.70;9.60
573;DHT22;271;51.114;13.780;2024-03-23T20:33:57;3.50;9.30
573;DHT22;271;51.114;13.780;2024-03-23T20:36:46;3.60;10.70
573;DHT22;271;51.114;13.780;2024-03-23T20:39:47;3.50;12.70
573;DHT22;271;51.114;13.780;2024-03-23T20:42:38;3.50;12.90
573;DHT22;271;51.114;13.780;2024-03-23T20:46:13;3.60;14.80
573;DHT22;271;51.114;13.780;2024-03-23T20:49:26;3.30;17.20
573;DHT22;271;51.114;13.780;2024-03-23T20:52:15;3.30;17.70
573;DHT22;271;51.114;13.780;2024-03-23T20:55:05;3.30;18.40
573;DHT22;271;51.114;13.780;2024-03-23T20:57:56;3.30;18.00
573;DHT22;271;51.114;13.780;2024-03-23T21:00:46;3.20;17.30
573;DHT22;271;51.114;13.780;2024-03-23T21:04:04;3.20;16.00
573;DHT22;271;51.114;13.780;2024-03-23T21:06:53;3.20;16.60
573;DHT22;271;51.114;13.780;2024-03-23T21:09:58;3.20;16.50
573;DHT22;271;51.114;13.780;2024-03-23T21:12:51;3.30;16.30
573;DHT22;271;51.114;13.780;2024-03-23T21:15:48;3.30;17.50
573;DHT22;271;51.114;13.780;2024-03-23T21:18:42;3.00;17.60
573;DHT22;271;51.114;13.780;2024-03-23T21:21:46;2.90;19.10
573;DHT22;271;51.114;13.780;2024-03-23T21:24:36;2.90;20.00
573;DHT22;271;51.114;13.780;2024-03-23T21:27:25;2.90;19.90
573;DHT22;271;51.114;13.780;2024-03-23T21:30:14;2.90;20.10
573;DHT22;271;51.114;13.780;2024-03-23T21:33:11;2.90;21.80
573;DHT22;271;51.114;13.780;2024-03-23T21:36:01;3.00;23.20
573;DHT22;271;51.114;13.780;2024-03-23T21:38:53;3.00;27.50
573;DHT22;271;51.114;13.780;2024-03-23T21:42:00;3.10;25.80
573;DHT22;271;51.114;13.780;2024-03-23T21:48:47;3.30;29.50
573;DHT22;271;51.114;13.780;2024-03-23T21:51:37;3.50;28.00
573;DHT22;271;51.114;13.780;2024-03-23T21:54:23;3.30;28.00
573;DHT22;271;51.114;13.780;2024-03-23T21:57:11;3.30;27.80
573;DHT22;271;51.114;13.780;2024-03-23T21:59:59;3.30;27.60
573;DHT22;271;51.114;13.780;2024-03-23T22:02:48;3.40;23.10
573;DHT22;271;51.114;13.780;2024-03-23T22:05:38;3.60;19.10
573;DHT22;271;51.114;13.780;2024-03-23T22:08:28;3.90;13.80